Rothesay, Canada
Current Conditions -  °F | °C
As of 10:00 AM on Thursday 30 Oct 2014 (Local Time) from CYSJ Reporting Station
Scattered Clouds Scattered Clouds  
Wind Chill: 44°   Ceiling: Unl
Heat Index: 46°   Visibility: 15mi
Dew Point: 43°   Wind: 6mph
Humidity: 87%   Direction: 270°W
Pressure: 29.82"   Gusts: NA
Location:  45.39°N, 65.99°W
Report Text: CYSJ 301300Z 27005KT 15SM FEW100 SCT250 08/06 A2982 RMK AC1CI3 SLP101
Loading
Personal Weather Stations






























Interactive Weather Map
Tropical Storm Tracking
New forecast layout! Learn more

10-Day Weather Forecast

Advertisements
Track Severe Weather on mobile